Latest Weather Observations for Fawkner Beacon

IDV60901

Issued at 7:01 pm EST Monday 27 April 2015 (issued every 10 minutes, with the page automatically refreshed every 10 minutes)

About weather observations | Map of Melbourne area stations | Latest observations for Melbourne area | Other Formats
Station Details ID: 086376 Name: FAWKNER BEACON Lat: -37.91 Lon: 144.93 Height: 17.0 m
Data from the previous 72 hours. | See also: Recent months for locations in Victoria
Date/Time
EST
Tmp

°C
App
Tmp
°C
Dew
Point
°C
Rel
Hum
%
Delta-T

°C
Wind Press
QNH
hPa
Press
MSL
hPa
Rain
since
9 am
mm
Dir
 
Spd
km/h
Gust
km/h
Spd
kts
Gust
kts
27/07:00pm - - - - - S 28 35 15 19 - - -
27/06:30pm - - - - - SSW 28 32 15 17 - - -
27/06:00pm - - - - - S 24 30 13 16 - - -
27/05:30pm - - - - - S 28 33 15 18 - - -
27/05:00pm - - - - - S 30 33 16 18 - - -
27/04:30pm - - - - - S 28 33 15 18 - - -
27/04:00pm - - - - - S 28 32 15 17 - - -
27/03:30pm - - - - - S 26 32 14 17 - - -
27/03:00pm - - - - - SSW 24 28 13 15 - - -
27/02:30pm - - - - - S 24 28 13 15 - - -
27/02:00pm - - - - - SSW 26 33 14 18 - - -
27/01:30pm - - - - - SSW 19 24 10 13 - - -
27/01:00pm - - - - - S 32 39 17 21 - - -
27/12:30pm - - - - - SW 24 30 13 16 - - -
27/12:00pm - - - - - SSW 19 28 10 15 - - -
27/11:30am - - - - - SW 26 30 14 16 - - -
27/11:00am - - - - - SW 24 30 13 16 - - -
27/10:30am - - - - - SW 26 32 14 17 - - -
27/10:00am - - - - - SSW 28 32 15 17 - - -
27/09:30am - - - - - SW 32 39 17 21 - - -
27/09:00am - - - - - WSW 30 35 16 19 - - -
27/08:30am - - - - - SW 32 35 17 19 - - -
27/08:00am - - - - - SW 28 35 15 19 - - -
27/07:30am - - - - - SW 33 41 18 22 - - -
27/07:00am - - - - - WSW 32 39 17 21 - - -
27/06:30am - - - - - WSW 32 39 17 21 - - -
27/06:00am - - - - - SW 30 35 16 19 - - -
27/05:30am - - - - - SW 32 39 17 21 - - -
27/05:00am - - - - - WSW 30 35 16 19 - - -
27/04:30am - - - - - SW 33 41 18 22 - - -
27/04:00am - - - - - WSW 39 44 21 24 - - -
27/03:30am - - - - - WSW 37 43 20 23 - - -
27/03:00am - - - - - SW 37 43 20 23 - - -
27/02:30am - - - - - SW 35 43 19 23 - - -
27/02:00am - - - - - SW 39 46 21 25 - - -
27/01:30am - - - - - WSW 37 44 20 24 - - -
27/01:00am - - - - - WSW 37 44 20 24 - - -
27/12:30am - - - - - WSW 35 44 19 24 - - -
27/12:00am - - - - - WSW 35 43 19 23 - - -
 
Date/Time
EST
Tmp

°C
App
Tmp
°C
Dew
Point
°C
Rel
Hum
%
Delta-T

°C
Wind Press
QNH
hPa
Press
MSL
hPa
Rain
since
9 am
mm
Dir
 
Spd
km/h
Gust
km/h
Spd
kts
Gust
kts
26/11:30pm - - - - - WSW 33 41 18 22 - - -
26/11:00pm - - - - - WSW 35 43 19 23 - - -
26/10:30pm - - - - - WSW 39 44 21 24 - - -
26/10:00pm - - - - - WSW 33 43 18 23 - - -
26/09:30pm - - - - - WSW 35 43 19 23 - - -
26/09:00pm - - - - - SW 39 46 21 25 - - -
26/08:30pm - - - - - SW 43 50 23 27 - - -
26/08:00pm - - - - - WSW 33 39 18 21 - - -
26/07:30pm - - - - - WSW 32 39 17 21 - - -
26/07:00pm - - - - - WSW 35 43 19 23 - - -
26/06:30pm - - - - - WSW 32 39 17 21 - - -
26/06:00pm - - - - - SW 33 43 18 23 - - -
26/05:30pm - - - - - SSW 35 43 19 23 - - -
26/05:00pm - - - - - SSW 33 41 18 22 - - -
26/04:30pm - - - - - SSW 37 44 20 24 - - -
26/04:00pm - - - - - SSW 39 48 21 26 - - -
26/03:30pm - - - - - SSW 41 48 22 26 - - -
26/03:00pm - - - - - S 35 44 19 24 - - -
26/02:30pm - - - - - SSW 33 44 18 24 - - -
26/02:00pm - - - - - S 32 35 17 19 - - -
26/01:30pm - - - - - SSW 39 54 21 29 - - -
26/01:24pm - - - - - SSW 28 46 15 25 - - -
26/01:00pm - - - - - SSW 32 41 17 22 - - -
26/12:30pm - - - - - SW 24 32 13 17 - - -
26/12:00pm - - - - - SW 32 43 17 23 - - -
26/11:30am - - - - - SW 37 46 20 25 - - -
26/11:00am - - - - - SSW 24 30 13 16 - - -
26/10:30am - - - - - SSW 32 43 17 23 - - -
26/10:17am - - - - - SSW 30 50 16 27 - - -
26/10:00am - - - - - SSW 20 28 11 15 - - -
26/09:30am - - - - - SW 33 43 18 23 - - -
26/09:13am - - - - - SW 37 44 20 24 - - -
26/09:00am - - - - - S 28 39 15 21 - - -
26/08:30am - - - - - SW 30 39 16 21 - - -
26/08:07am - - - - - S 33 46 18 25 - - -
26/08:00am - - - - - SSE 32 39 17 21 - - -
26/07:30am - - - - - S 33 50 18 27 - - -
26/07:00am - - - - - SW 35 44 19 24 - - -
26/06:30am - - - - - SW 37 46 20 25 - - -
26/06:00am - - - - - SW 30 35 16 19 - - -
26/05:30am - - - - - SSW 37 44 20 24 - - -
26/05:00am - - - - - SSW 41 48 22 26 - - -
26/04:43am - - - - - SSW 32 41 17 22 - - -
26/04:30am - - - - - SW 39 46 21 25 - - -
26/04:16am - - - - - SSW 33 43 18 23 - - -
26/04:00am - - - - - S 43 54 23 29 - - -
26/03:30am - - - - - SSW 37 44 20 24 - - -
26/03:00am - - - - - S 35 44 19 24 - - -
26/02:30am - - - - - SSW 41 48 22 26 - - -
26/02:00am - - - - - S 37 46 20 25 - - -
26/01:30am - - - - - SSW 37 46 20 25 - - -
26/01:00am - - - - - SSW 41 52 22 28 - - -
26/12:30am - - - - - S 43 48 23 26 - - -
26/12:00am - - - - - SSW 41 48 22 26 - - -
 
Date/Time
EST
Tmp

°C
App
Tmp
°C
Dew
Point
°C
Rel
Hum
%
Delta-T

°C
Wind Press
QNH
hPa
Press
MSL
hPa
Rain
since
9 am
mm
Dir
 
Spd
km/h
Gust
km/h
Spd
kts
Gust
kts
25/11:30pm - - - - - S 41 50 22 27 - - -
25/11:00pm - - - - - S 43 48 23 26 - - -
25/10:30pm - - - - - S 43 48 23 26 - - -
25/10:00pm - - - - - S 50 59 27 32 - - -
25/09:30pm - - - - - S 48 57 26 31 - - -
25/09:00pm - - - - - S 46 54 25 29 - - -
25/08:30pm - - - - - S 46 54 25 29 - - -
25/08:00pm - - - - - S 44 52 24 28 - - -
25/07:30pm - - - - - S 48 59 26 32 - - -
25/07:00pm - - - - - S 44 52 24 28 - - -
25/06:30pm - - - - - S 39 50 21 27 - - -
25/06:00pm - - - - - S 37 43 20 23 - - -
25/05:30pm - - - - - S 32 41 17 22 - - -
25/05:00pm - - - - - S 30 35 16 19 - - -
25/04:30pm - - - - - S 33 39 18 21 - - -
25/04:00pm - - - - - S 22 26 12 14 - - -
25/03:30pm - - - - - S 19 24 10 13 - - -
25/03:00pm - - - - - SSW 19 22 10 12 - - -
25/02:30pm - - - - - S 22 26 12 14 - - -
25/02:00pm - - - - - SW 20 24 11 13 - - -
25/01:30pm - - - - - WSW 13 17 7 9 - - -
25/01:00pm - - - - - W 13 15 7 8 - - -
25/12:30pm - - - - - WNW 13 17 7 9 - - -
25/12:00pm - - - - - WSW 13 20 7 11 - - -
25/11:30am - - - - - WSW 15 20 8 11 - - -
25/11:00am - - - - - WNW 13 17 7 9 - - -
25/10:30am - - - - - W 17 22 9 12 - - -
25/10:00am - - - - - W 15 17 8 9 - - -
25/09:30am - - - - - WNW 13 15 7 8 - - -
25/09:00am - - - - - W 11 15 6 8 - - -
25/08:30am - - - - - WSW 11 15 6 8 - - -
25/08:00am - - - - - WSW 9 13 5 7 - - -
25/07:30am - - - - - WSW 13 17 7 9 - - -
25/07:00am - - - - - WSW 24 28 13 15 - - -
25/06:30am - - - - - WSW 26 32 14 17 - - -
25/06:00am - - - - - WSW 28 32 15 17 - - -
25/05:30am - - - - - WSW 28 32 15 17 - - -
25/05:00am - - - - - WSW 26 32 14 17 - - -
25/04:30am - - - - - WSW 26 30 14 16 - - -
25/04:00am - - - - - WSW 24 28 13 15 - - -
25/03:30am - - - - - WSW 26 30 14 16 - - -
25/03:00am - - - - - SW 22 26 12 14 - - -
25/02:30am - - - - - SW 13 17 7 9 - - -
25/02:00am - - - - - WSW 9 13 5 7 - - -
25/01:30am - - - - - WSW 13 17 7 9 - - -
25/01:00am - - - - - W 13 17 7 9 - - -
25/12:30am - - - - - W 13 17 7 9 - - -
25/12:00am - - - - - W 15 20 8 11 - - -
 
Date/Time
EST
Tmp

°C
App
Tmp
°C
Dew
Point
°C
Rel
Hum
%
Delta-T

°C
Wind Press
QNH
hPa
Press
MSL
hPa
Rain
since
9 am
mm
Dir
 
Spd
km/h
Gust
km/h
Spd
kts
Gust
kts
24/11:30pm - - - - - WSW 15 20 8 11 - - -
24/11:00pm - - - - - WSW 24 28 13 15 - - -
24/10:30pm - - - - - SW 24 28 13 15 - - -
24/10:00pm - - - - - WSW 26 32 14 17 - - -
24/09:30pm - - - - - NW 11 30 6 16 - - -
24/09:00pm - - - - - N 9 11 5 6 - - -
24/08:30pm - - - - - NNE 9 11 5 6 - - -
24/08:00pm - - - - - NNE 9 11 5 6 - - -
24/07:30pm - - - - - NNE 6 7 3 4 - - -

Latest Capital City Observations: Canberra | Sydney | Melbourne | Brisbane | Adelaide | Perth | Hobart | Darwin

Other Formats:

Comma delimited format used in spreadsheet applications
http://www.bom.gov.au/fwo/IDV60901/IDV60901.95872.axf

JavaScript Object Notation format (JSON) in row-major order
http://www.bom.gov.au/fwo/IDV60901/IDV60901.95872.json